createdAt,value
2019-03-20T00:00:25.271Z,47.83
2019-03-20T00:02:54.269Z,47.20
2019-03-20T00:05:22.877Z,48.33
2019-03-20T00:07:51.452Z,50.88
2019-03-20T00:10:20.609Z,49.03
2019-03-20T00:12:49.263Z,50.90
2019-03-20T00:15:18.033Z,49.93
2019-03-20T00:17:46.633Z,48.23
2019-03-20T00:20:15.674Z,51.88
2019-03-20T00:22:45.283Z,52.10
2019-03-20T00:25:14.112Z,54.85
2019-03-20T00:27:42.783Z,51.02
2019-03-20T00:30:16.750Z,52.45
2019-03-20T00:32:45.578Z,62.93
2019-03-20T00:35:14.476Z,52.58
2019-03-20T00:37:43.047Z,55.20
2019-03-20T00:40:15.956Z,51.10
2019-03-20T00:42:44.691Z,49.27
2019-03-20T00:45:14.902Z,55.95
2019-03-20T00:47:43.484Z,49.85
2019-03-20T00:50:14.426Z,47.35
2019-03-20T00:52:43.110Z,54.53
2019-03-20T00:55:13.220Z,46.48
2019-03-20T00:57:41.893Z,50.28
2019-03-20T01:00:13.775Z,44.63
2019-03-20T01:02:42.340Z,48.50
2019-03-20T01:05:12.803Z,44.50
2019-03-20T01:07:41.746Z,42.05
2019-03-20T01:10:13.520Z,47.13
2019-03-20T01:12:42.132Z,45.45
2019-03-20T01:15:12.939Z,45.70
2019-03-20T01:17:41.881Z,47.48
2019-03-20T01:20:13.630Z,49.13
2019-03-20T01:22:42.205Z,49.80
2019-03-20T01:25:11.353Z,46.70
2019-03-20T01:27:40.014Z,49.63
2019-03-20T01:30:13.173Z,49.05
2019-03-20T01:32:41.826Z,49.35
2019-03-20T01:35:10.550Z,52.53
2019-03-20T01:37:39.180Z,48.83
2019-03-20T01:40:08.404Z,48.83
2019-03-20T01:42:36.983Z,58.42
2019-03-20T01:45:06.777Z,51.98
2019-03-20T01:47:35.330Z,58.58
2019-03-20T01:50:05.840Z,61.80
2019-03-20T01:52:35.523Z,59.80
2019-03-20T01:55:05.898Z,59.23
2019-03-20T01:57:34.531Z,56.25
2019-03-20T02:00:04.642Z,58.10
2019-03-20T02:02:33.626Z,56.90
2019-03-20T02:05:02.186Z,56.98
2019-03-20T02:07:32.711Z,61.42
2019-03-20T02:10:01.312Z,57.23
2019-03-20T02:12:29.892Z,62.85
2019-03-20T02:14:58.477Z,62.55
2019-03-20T02:17:28.094Z,67.65
2019-03-20T02:19:56.661Z,65.62
2019-03-20T02:22:26.210Z,70.72
2019-03-20T02:24:54.778Z,73.87
2019-03-20T02:27:23.407Z,71.20
2019-03-20T02:29:51.997Z,72.03
2019-03-20T02:32:22.476Z,66.17
2019-03-20T02:34:51.070Z,62.65
2019-03-20T02:37:19.653Z,64.90
2019-03-20T02:39:48.216Z,64.82
2019-03-20T02:42:16.818Z,63.15
2019-03-20T02:44:45.398Z,57.43
2019-03-20T02:47:13.975Z,60.38
2019-03-20T02:49:42.585Z,58.02
2019-03-20T02:52:12.141Z,63.55
2019-03-20T02:54:41.807Z,57.00
2019-03-20T02:57:11.467Z,62.48
2019-03-20T02:59:40.055Z,58.25
2019-03-20T03:02:08.735Z,51.18
2019-03-20T03:04:37.371Z,54.65
2019-03-20T03:07:06.055Z,54.88
2019-03-20T03:09:35.640Z,52.08
2019-03-20T03:12:04.276Z,53.63
2019-03-20T03:14:32.876Z,52.45
2019-03-20T03:17:01.455Z,42.55
2019-03-20T03:19:30.073Z,53.78
2019-03-20T03:21:58.655Z,48.38
2019-03-20T03:24:27.227Z,46.48
2019-03-20T03:26:55.981Z,44.77
2019-03-20T03:29:24.510Z,52.80
2019-03-20T03:31:53.065Z,43.73
2019-03-20T03:34:22.586Z,44.27
2019-03-20T03:36:51.143Z,47.23
2019-03-20T03:39:19.724Z,45.30
2019-03-20T03:41:48.299Z,42.75
2019-03-20T03:44:16.916Z,46.77
2019-03-20T03:46:45.537Z,44.48
2019-03-20T03:49:16.004Z,44.60
2019-03-20T03:51:44.588Z,41.98
2019-03-20T03:54:14.100Z,48.15
2019-03-20T03:56:42.681Z,48.05
2019-03-20T03:59:11.309Z,55.03
2019-03-20T04:01:39.882Z,45.35
2019-03-20T04:04:09.840Z,52.53
2019-03-20T04:06:38.426Z,48.98
2019-03-20T04:09:07.459Z,46.92
2019-03-20T04:11:36.105Z,50.15
2019-03-20T04:14:04.746Z,48.63
2019-03-20T04:16:33.348Z,45.20
2019-03-20T04:19:02.905Z,51.68
2019-03-20T04:21:31.481Z,48.45
2019-03-20T04:24:00.104Z,49.15
2019-03-20T04:26:28.663Z,49.63
2019-03-20T04:28:57.230Z,45.85
2019-03-20T04:31:25.836Z,52.88
2019-03-20T04:33:57.547Z,48.38
2019-03-20T04:36:24.679Z,48.20
2019-03-20T04:38:53.292Z,49.75
2019-03-20T04:41:21.894Z,50.10
2019-03-20T04:43:50.458Z,50.85
2019-03-20T04:46:22.487Z,51.37
2019-03-20T04:48:51.139Z,48.50
2019-03-20T04:51:19.715Z,49.10
2019-03-20T04:53:48.324Z,56.70
2019-03-20T04:56:16.935Z,46.40
2019-03-20T04:58:45.527Z,54.08
2019-03-20T05:01:14.090Z,54.75
2019-03-20T05:03:42.681Z,47.38
2019-03-20T05:06:12.578Z,55.17
2019-03-20T05:08:41.202Z,48.13
2019-03-20T05:11:09.798Z,49.05
2019-03-20T05:13:38.359Z,54.20
2019-03-20T05:16:06.967Z,55.40
2019-03-20T05:18:36.743Z,50.45
2019-03-20T05:21:06.245Z,52.95
2019-03-20T05:23:34.913Z,55.35
2019-03-20T05:26:03.517Z,51.65
2019-03-20T05:28:32.128Z,49.98
2019-03-20T05:31:01.606Z,54.05
2019-03-20T05:33:30.235Z,56.25
2019-03-20T05:35:58.802Z,52.95
2019-03-20T05:38:27.385Z,52.55
2019-03-20T05:40:56.900Z,48.75
2019-03-20T05:43:25.463Z,51.15
2019-03-20T05:45:54.040Z,49.00
2019-03-20T05:48:22.686Z,46.92
2019-03-20T05:50:51.238Z,50.65
2019-03-20T05:53:20.796Z,47.67
2019-03-20T05:55:49.409Z,55.63
2019-03-20T05:58:19.046Z,48.52
2019-03-20T06:00:47.629Z,47.88
2019-03-20T06:03:16.627Z,50.33
2019-03-20T06:05:46.241Z,52.08
2019-03-20T06:08:15.769Z,55.45
2019-03-20T06:10:44.400Z,50.52
2019-03-20T06:13:12.974Z,50.25
2019-03-20T06:15:41.540Z,40.78
2019-03-20T06:18:13.524Z,48.02
2019-03-20T06:20:42.208Z,46.80
2019-03-20T06:23:16.586Z,40.40
2019-03-20T06:25:46.081Z,45.08
2019-03-20T06:28:14.744Z,43.90
2019-03-20T06:30:43.290Z,39.60
2019-03-20T06:33:11.886Z,40.43
2019-03-20T06:35:40.460Z,37.60
2019-03-20T06:38:09.048Z,37.70
2019-03-20T06:40:37.623Z,35.38
2019-03-20T06:43:07.543Z,45.30
2019-03-20T06:45:36.137Z,38.92
2019-03-20T06:48:04.793Z,38.83
2019-03-20T06:50:34.273Z,35.43
2019-03-20T06:53:02.880Z,36.98
2019-03-20T06:55:31.920Z,36.75
2019-03-20T06:58:01.592Z,39.20
2019-03-20T07:00:39.984Z,31.15
2019-03-20T07:03:14.269Z,32.40
2019-03-20T07:05:51.673Z,37.58
2019-03-20T07:08:23.395Z,33.90
2019-03-20T07:11:03.908Z,29.67
2019-03-20T07:13:34.466Z,27.82
2019-03-20T07:16:03.208Z,28.07
2019-03-20T07:18:31.801Z,26.02
2019-03-20T07:21:00.444Z,29.90
2019-03-20T07:23:29.014Z,27.17
2019-03-20T07:25:57.592Z,26.45
2019-03-20T07:28:26.182Z,25.97
2019-03-20T07:30:54.752Z,24.35
2019-03-20T07:33:23.350Z,26.17
2019-03-20T07:35:52.248Z,29.18
2019-03-20T07:38:20.900Z,24.30
2019-03-20T07:40:49.468Z,20.02
2019-03-20T07:43:18.105Z,16.10
2019-03-20T07:45:46.669Z,16.70
2019-03-20T07:48:22.205Z,24.87
2019-03-20T07:50:45.491Z,20.12
2019-03-20T07:53:14.390Z,22.00
2019-03-20T07:55:42.965Z,21.15
2019-03-20T07:58:11.597Z,19.00
2019-03-20T08:00:42.195Z,21.62
2019-03-20T08:03:10.783Z,20.15
2019-03-20T08:05:39.736Z,19.17
2019-03-20T08:08:08.313Z,21.00
2019-03-20T08:10:37.159Z,26.97
2019-03-20T08:13:06.369Z,19.17
2019-03-20T08:15:34.952Z,26.75
2019-03-20T08:18:04.262Z,25.52
2019-03-20T08:20:32.832Z,23.92
2019-03-20T08:23:02.425Z,20.95
2019-03-20T08:25:31.072Z,23.20
2019-03-20T08:27:59.606Z,22.85
2019-03-20T08:30:28.248Z,15.80
2019-03-20T08:32:56.833Z,14.23
2019-03-20T08:35:25.472Z,13.58
2019-03-20T08:37:54.109Z,17.48
2019-03-20T08:40:22.670Z,15.45
2019-03-20T08:42:51.296Z,12.37
2019-03-20T08:45:19.997Z,15.98
2019-03-20T08:47:48.554Z,12.98
2019-03-20T08:50:19.656Z,11.43
2019-03-20T08:52:48.295Z,12.13
2019-03-20T08:55:18.970Z,10.30
2019-03-20T08:57:47.692Z,11.22
2019-03-20T09:00:20.238Z,13.00
2019-03-20T09:02:48.882Z,13.20
2019-03-20T09:05:17.628Z,14.18
2019-03-20T09:07:47.828Z,13.78
2019-03-20T09:10:18.559Z,14.20
2019-03-20T09:12:47.176Z,10.65
2019-03-20T09:15:19.373Z,10.50
2019-03-20T09:17:48.015Z,14.63
2019-03-20T09:20:22.956Z,12.03
2019-03-20T09:22:51.573Z,11.20
2019-03-20T09:25:26.744Z,11.00
2019-03-20T09:27:55.433Z,12.82
2019-03-20T09:30:27.942Z,12.88
2019-03-20T09:32:56.611Z,13.55
2019-03-20T09:35:25.266Z,12.68
2019-03-20T09:37:53.825Z,10.10
2019-03-20T09:40:26.907Z,14.35
2019-03-20T09:42:55.519Z,10.78
2019-03-20T09:45:24.962Z,14.55
2019-03-20T09:47:53.676Z,11.05
2019-03-20T09:50:25.981Z,10.00
2019-03-20T09:52:55.537Z,11.05
2019-03-20T09:55:24.176Z,12.30
2019-03-20T09:57:52.831Z,14.65
2019-03-20T10:00:26.079Z,11.05
2019-03-20T10:02:54.661Z,12.18
2019-03-20T10:05:24.007Z,12.18
2019-03-20T10:07:53.624Z,16.30
2019-03-20T10:10:31.961Z,13.20
2019-03-20T10:13:00.559Z,16.02
2019-03-20T10:15:30.325Z,13.60
2019-03-20T10:17:58.968Z,16.95
2019-03-20T10:20:27.610Z,19.70
2019-03-20T10:22:56.407Z,13.95
2019-03-20T10:25:25.107Z,19.10
2019-03-20T10:27:53.678Z,16.70
2019-03-20T10:30:27.419Z,16.65
2019-03-20T10:32:56.335Z,18.77
2019-03-20T10:35:24.973Z,19.20
2019-03-20T10:37:53.927Z,12.30
2019-03-20T10:40:27.317Z,12.30
2019-03-20T10:42:56.021Z,13.85
2019-03-20T10:45:24.806Z,14.18
2019-03-20T10:47:53.569Z,14.90
2019-03-20T10:50:29.383Z,13.55
2019-03-20T10:52:58.061Z,12.80
2019-03-20T10:55:26.641Z,13.15
2019-03-20T10:57:55.290Z,14.23
2019-03-20T11:00:24.929Z,17.15
2019-03-20T11:02:53.510Z,16.65
2019-03-20T11:05:22.248Z,15.28
2019-03-20T11:07:50.846Z,13.43
2019-03-20T11:10:24.679Z,9.53
2019-03-20T11:12:53.383Z,16.17
2019-03-20T11:15:22.777Z,12.10
2019-03-20T11:17:51.547Z,15.60
2019-03-20T11:20:22.118Z,15.23
2019-03-20T11:22:50.752Z,13.18
2019-03-20T11:25:21.101Z,13.25
2019-03-20T11:27:50.118Z,13.40
2019-03-20T11:30:28.739Z,12.95
2019-03-20T11:32:57.544Z,14.98
2019-03-20T11:35:26.633Z,14.53
2019-03-20T11:37:55.306Z,22.07
2019-03-20T11:40:32.308Z,13.40
2019-03-20T11:43:00.929Z,12.25
2019-03-20T11:45:29.989Z,10.95
2019-03-20T11:47:58.554Z,11.95
2019-03-20T11:50:38.056Z,12.33
2019-03-20T11:53:07.876Z,16.07
2019-03-20T11:55:37.297Z,17.15
2019-03-20T11:58:06.841Z,17.95
2019-03-20T12:00:35.759Z,13.38
2019-03-20T12:03:05.091Z,10.88
2019-03-20T12:05:33.784Z,12.35
2019-03-20T12:08:02.770Z,18.05
2019-03-20T12:10:34.788Z,14.73
2019-03-20T12:13:03.516Z,15.25
2019-03-20T12:15:32.218Z,18.98
2019-03-20T12:18:00.804Z,17.05
2019-03-20T12:20:29.383Z,14.73
2019-03-20T12:22:58.045Z,20.35
2019-03-20T12:25:28.971Z,18.73
2019-03-20T12:27:57.654Z,12.90
2019-03-20T12:30:28.851Z,20.72
2019-03-20T12:32:57.596Z,15.58
2019-03-20T12:35:36.688Z,14.43
2019-03-20T12:38:14.164Z,14.53
2019-03-20T12:40:36.689Z,26.12
2019-03-20T12:43:06.222Z,13.80
2019-03-20T12:45:38.624Z,19.55
2019-03-20T12:48:11.619Z,11.97
2019-03-20T12:50:40.237Z,12.25
2019-03-20T12:53:11.681Z,19.42
2019-03-20T12:55:40.250Z,14.73
2019-03-20T12:58:08.858Z,15.98
2019-03-20T13:00:37.498Z,13.60
2019-03-20T13:03:06.142Z,14.70
2019-03-20T13:05:34.817Z,16.07
2019-03-20T13:08:06.043Z,14.35
2019-03-20T13:10:33.592Z,15.98
2019-03-20T13:13:02.307Z,15.85
2019-03-20T13:15:32.528Z,16.48
2019-03-20T13:18:01.073Z,14.83
2019-03-20T13:20:29.696Z,16.90
2019-03-20T13:23:22.177Z,16.37
2019-03-20T13:25:51.220Z,16.02
2019-03-20T13:28:19.754Z,21.45
2019-03-20T13:30:58.398Z,22.67
2019-03-20T13:33:27.031Z,19.40
2019-03-20T13:35:55.611Z,21.97
2019-03-20T13:38:24.232Z,20.77
2019-03-20T13:40:52.847Z,17.48
2019-03-20T13:43:21.493Z,21.02
2019-03-20T13:45:50.108Z,14.73
2019-03-20T13:48:18.692Z,19.90
2019-03-20T13:50:47.374Z,17.52
2019-03-20T13:53:15.966Z,16.90
2019-03-20T13:55:44.610Z,17.55
2019-03-20T13:58:13.211Z,16.42
2019-03-20T14:00:42.684Z,15.03
2019-03-20T14:03:11.272Z,17.70
2019-03-20T14:05:39.863Z,13.35
2019-03-20T14:08:08.442Z,14.05
2019-03-20T14:10:49.672Z,14.90
2019-03-20T14:13:07.385Z,17.82
2019-03-20T14:15:36.013Z,19.77
2019-03-20T14:18:05.011Z,15.83
2019-03-20T14:20:33.841Z,18.52
2019-03-20T14:23:02.522Z,15.23
2019-03-20T14:25:32.226Z,17.87
2019-03-20T14:28:00.796Z,14.30
2019-03-20T14:30:33.340Z,17.65
2019-03-20T14:35:30.251Z,13.00
2019-03-20T14:37:58.857Z,21.62
2019-03-20T14:40:36.225Z,14.30
2019-03-20T14:42:59.885Z,13.75
2019-03-20T14:45:28.646Z,13.28
2019-03-20T14:47:57.294Z,14.93
2019-03-20T14:50:28.188Z,17.35
2019-03-20T14:52:56.853Z,15.13
2019-03-20T14:55:25.896Z,12.85
2019-03-20T14:57:54.465Z,20.40
2019-03-20T15:00:30.141Z,13.53
2019-03-20T15:02:59.174Z,18.00
2019-03-20T15:05:27.945Z,18.15
2019-03-20T15:07:56.522Z,15.70
2019-03-20T15:10:27.197Z,15.43
2019-03-20T15:12:56.541Z,22.87
2019-03-20T15:15:39.985Z,18.48
2019-03-20T15:18:08.608Z,16.07
2019-03-20T15:20:37.234Z,19.85
2019-03-20T15:23:05.812Z,19.32
2019-03-20T15:25:34.395Z,16.35
2019-03-20T15:28:02.968Z,17.65
2019-03-20T15:30:31.524Z,23.90
2019-03-20T15:33:00.152Z,20.82
2019-03-20T15:35:28.711Z,16.12
2019-03-20T15:37:57.355Z,23.05
2019-03-20T15:40:27.059Z,14.87
2019-03-20T15:42:55.728Z,17.10
2019-03-20T15:45:24.296Z,16.05
2019-03-20T15:47:52.864Z,17.40
2019-03-20T15:50:23.737Z,19.87
2019-03-20T15:52:52.480Z,15.70
2019-03-20T15:55:34.502Z,15.25
2019-03-20T15:58:03.078Z,17.02
2019-03-20T16:00:31.788Z,17.87
2019-03-20T16:03:11.829Z,17.92
2019-03-20T16:05:40.525Z,19.45
2019-03-20T16:08:09.095Z,16.00
2019-03-20T16:10:37.755Z,19.12
2019-03-20T16:13:06.510Z,22.25
2019-03-20T16:15:35.172Z,18.98
2019-03-20T16:18:03.912Z,21.80
2019-03-20T16:20:32.478Z,18.73
2019-03-20T16:23:01.135Z,20.20
2019-03-20T16:25:29.723Z,21.93
2019-03-20T16:27:58.379Z,19.37
2019-03-20T16:30:33.915Z,23.07
2019-03-20T16:33:02.937Z,25.60
2019-03-20T16:35:31.862Z,18.73
2019-03-20T16:38:00.507Z,23.30
2019-03-20T16:40:30.978Z,24.05
2019-03-20T16:42:59.524Z,19.82
2019-03-20T16:45:32.175Z,25.15
2019-03-20T16:48:01.031Z,20.72
2019-03-20T16:50:29.681Z,21.82
2019-03-20T16:52:58.561Z,24.45
2019-03-20T16:55:27.203Z,27.77
2019-03-20T16:57:55.850Z,29.75
2019-03-20T17:00:26.741Z,29.02
2019-03-20T17:02:55.754Z,27.65
2019-03-20T17:05:24.903Z,27.32
2019-03-20T17:07:53.467Z,21.42
2019-03-20T17:10:33.675Z,25.37
2019-03-20T17:13:02.630Z,23.83
2019-03-20T17:15:33.372Z,23.60
2019-03-20T17:18:01.981Z,25.57
2019-03-20T17:20:30.660Z,23.77
2019-03-20T17:22:59.371Z,21.17
2019-03-20T17:25:28.113Z,27.25
2019-03-20T17:27:56.764Z,21.55
2019-03-20T17:30:30.605Z,23.83
2019-03-20T17:32:59.392Z,24.05
2019-03-20T17:35:27.964Z,23.80
2019-03-20T17:37:56.936Z,26.87
2019-03-20T17:40:27.000Z,23.62
2019-03-20T17:42:55.629Z,27.37
2019-03-20T17:45:26.133Z,27.48
2019-03-20T17:47:56.981Z,29.87
2019-03-20T17:50:30.492Z,26.42
2019-03-20T17:52:59.219Z,24.75
2019-03-20T17:55:28.346Z,27.48
2019-03-20T17:57:57.011Z,31.12
2019-03-20T18:00:50.287Z,30.08
2019-03-20T18:03:18.892Z,28.83
2019-03-20T18:05:47.467Z,28.52
2019-03-20T18:08:16.041Z,30.43
2019-03-20T18:10:44.637Z,30.82
2019-03-20T18:13:13.213Z,26.35
2019-03-20T18:15:41.816Z,28.87
2019-03-20T18:18:10.477Z,25.72
2019-03-20T18:20:39.088Z,29.18
2019-03-20T18:23:08.309Z,29.80
2019-03-20T18:25:36.970Z,30.65
2019-03-20T18:28:06.133Z,26.97
2019-03-20T18:30:39.843Z,25.12
2019-03-20T18:33:08.474Z,30.72
2019-03-20T18:35:37.044Z,29.15
2019-03-20T18:38:06.564Z,28.98
2019-03-20T18:40:35.137Z,32.38
2019-03-20T18:43:03.857Z,34.33
2019-03-20T18:45:32.534Z,29.27
2019-03-20T18:48:01.549Z,33.58
2019-03-20T18:50:30.178Z,35.58
2019-03-20T18:52:58.762Z,31.82
2019-03-20T18:55:27.626Z,33.35
2019-03-20T18:57:56.261Z,27.45
2019-03-20T19:00:29.259Z,28.35
2019-03-20T19:03:06.822Z,32.08
2019-03-20T19:05:41.345Z,28.80
2019-03-20T19:08:11.038Z,29.85
2019-03-20T19:10:39.749Z,28.70
2019-03-20T19:13:08.424Z,23.73
2019-03-20T19:15:37.141Z,31.07
2019-03-20T19:18:05.727Z,27.02
2019-03-20T19:20:34.352Z,33.23
2019-03-20T19:23:02.973Z,29.85
2019-03-20T19:25:31.567Z,31.23
2019-03-20T19:28:00.147Z,24.32
2019-03-20T19:30:28.728Z,29.80
2019-03-20T19:32:57.457Z,30.17
2019-03-20T19:35:26.041Z,31.93
2019-03-20T19:37:54.633Z,30.95
2019-03-20T19:40:23.436Z,29.90
2019-03-20T19:42:52.005Z,32.08
2019-03-20T19:45:21.499Z,34.67
2019-03-20T19:47:50.203Z,37.30
2019-03-20T19:50:20.315Z,38.17
2019-03-20T19:52:48.891Z,37.10
2019-03-20T19:55:18.158Z,37.93
2019-03-20T19:57:46.756Z,38.58
2019-03-20T20:00:17.250Z,35.98
2019-03-20T20:02:46.993Z,39.75
2019-03-20T20:05:16.393Z,41.25
2019-03-20T20:07:45.032Z,40.08
2019-03-20T20:10:18.607Z,42.05
2019-03-20T20:12:47.263Z,34.53
2019-03-20T20:15:26.434Z,39.03
2019-03-20T20:17:56.022Z,42.85
2019-03-20T20:20:26.870Z,40.80
2019-03-20T20:22:55.443Z,37.93
2019-03-20T20:25:24.004Z,39.40
2019-03-20T20:27:52.628Z,41.85
2019-03-20T20:30:21.279Z,39.60
2019-03-20T20:32:49.842Z,37.53
2019-03-20T20:35:18.498Z,36.90
2019-03-20T20:37:47.992Z,35.03
2019-03-20T20:40:22.091Z,37.95
2019-03-20T20:42:50.726Z,37.73
2019-03-20T20:45:19.373Z,32.90
2019-03-20T20:47:48.142Z,35.80
2019-03-20T20:50:17.582Z,31.42
2019-03-20T20:52:46.485Z,33.83
2019-03-20T20:55:19.511Z,35.92
2019-03-20T20:57:48.218Z,36.13
2019-03-20T21:00:27.314Z,32.53
2019-03-20T21:02:56.004Z,32.80
2019-03-20T21:05:24.950Z,33.15
2019-03-20T21:07:53.646Z,29.87
2019-03-20T21:10:26.226Z,26.23
2019-03-20T21:12:57.331Z,34.43
2019-03-20T21:15:35.778Z,28.87
2019-03-20T21:18:16.708Z,26.62
2019-03-20T21:20:47.204Z,26.80
2019-03-20T21:23:38.494Z,28.45
2019-03-20T21:26:28.685Z,24.02
2019-03-20T21:29:16.659Z,29.42
2019-03-20T21:32:04.880Z,28.77
2019-03-20T21:34:39.413Z,25.20
2019-03-20T21:37:29.169Z,30.88
2019-03-20T21:39:57.793Z,23.40
2019-03-20T21:42:52.181Z,26.80
2019-03-20T21:45:26.856Z,25.12
2019-03-20T21:47:55.426Z,24.23
2019-03-20T21:50:49.740Z,28.52
2019-03-20T21:53:24.310Z,28.50
2019-03-20T21:56:18.485Z,25.55
2019-03-20T21:58:53.349Z,27.42
2019-03-20T22:01:47.565Z,25.25
2019-03-20T22:04:16.174Z,24.52
2019-03-20T22:07:04.132Z,27.25
2019-03-20T22:09:41.982Z,28.02
2019-03-20T22:12:16.280Z,29.70
2019-03-20T22:14:48.059Z,23.10
2019-03-20T22:17:52.912Z,24.85
2019-03-20T22:20:24.552Z,20.50
2019-03-20T22:23:16.026Z,24.60
2019-03-20T22:25:55.491Z,24.95
2019-03-20T22:28:45.049Z,23.85
2019-03-20T22:31:13.691Z,24.45
2019-03-20T22:34:20.793Z,23.05
2019-03-20T22:36:49.368Z,26.55
2019-03-20T22:39:54.454Z,23.85
2019-03-20T22:42:34.855Z,27.25
2019-03-20T22:45:21.621Z,22.70
2019-03-20T22:47:55.919Z,27.30
2019-03-20T22:50:33.168Z,25.50
2019-03-20T22:53:32.365Z,26.42
2019-03-20T22:56:06.674Z,27.50
2019-03-20T22:58:47.475Z,25.10
2019-03-20T23:01:34.059Z,24.02
2019-03-20T23:04:06.216Z,22.87
2019-03-20T23:06:34.793Z,25.00
2019-03-20T23:09:05.240Z,27.70
2019-03-20T23:11:33.922Z,25.15
2019-03-20T23:14:04.137Z,24.23
2019-03-20T23:16:32.716Z,22.05
2019-03-20T23:19:01.302Z,23.92
2019-03-20T23:21:29.978Z,27.73
2019-03-20T23:23:58.669Z,21.07
2019-03-20T23:26:27.242Z,25.80
2019-03-20T23:28:55.801Z,18.42
2019-03-20T23:31:24.386Z,21.80
2019-03-20T23:33:52.964Z,21.35
2019-03-20T23:36:22.486Z,24.35
2019-03-20T23:38:51.095Z,20.02
2019-03-20T23:41:20.640Z,19.00
2019-03-20T23:43:53.147Z,25.08
2019-03-20T23:46:20.092Z,22.22
2019-03-20T23:49:04.457Z,20.97
2019-03-20T23:51:35.242Z,19.25
2019-03-20T23:54:04.126Z,23.45
2019-03-20T23:56:36.079Z,18.48
2019-03-20T23:59:05.780Z,20.90
